sensor_id;sensor_type;location;lat;lon;timestamp;P1;durP1;ratioP1;P2;durP2;ratioP2
4563;SDS011;2294;51.818;8.484;2023-04-24T00:01:22;1.07;;;0.97;;
4563;SDS011;2294;51.818;8.484;2023-04-24T00:03:49;0.80;;;0.80;;
4563;SDS011;2294;51.818;8.484;2023-04-24T00:06:16;2.10;;;1.17;;
4563;SDS011;2294;51.818;8.484;2023-04-24T00:08:43;0.70;;;0.70;;
4563;SDS011;2294;51.818;8.484;2023-04-24T00:11:10;1.47;;;0.90;;
4563;SDS011;2294;51.818;8.484;2023-04-24T00:13:37;1.17;;;1.10;;
4563;SDS011;2294;51.818;8.484;2023-04-24T00:16:06;0.90;;;0.90;;
4563;SDS011;2294;51.818;8.484;2023-04-24T00:18:33;0.90;;;0.90;;
4563;SDS011;2294;51.818;8.484;2023-04-24T00:21:00;2.40;;;1.10;;
4563;SDS011;2294;51.818;8.484;2023-04-24T00:23:27;0.90;;;0.80;;
4563;SDS011;2294;51.818;8.484;2023-04-24T00:25:54;1.00;;;0.90;;
4563;SDS011;2294;51.818;8.484;2023-04-24T00:28:21;1.00;;;0.90;;
4563;SDS011;2294;51.818;8.484;2023-04-24T00:30:48;1.00;;;1.00;;
4563;SDS011;2294;51.818;8.484;2023-04-24T00:33:16;3.37;;;0.90;;
4563;SDS011;2294;51.818;8.484;2023-04-24T00:35:43;1.00;;;0.90;;
4563;SDS011;2294;51.818;8.484;2023-04-24T00:38:10;0.70;;;0.70;;
4563;SDS011;2294;51.818;8.484;2023-04-24T00:40:37;1.10;;;1.00;;
4563;SDS011;2294;51.818;8.484;2023-04-24T00:43:04;2.00;;;1.20;;
4563;SDS011;2294;51.818;8.484;2023-04-24T00:45:31;1.10;;;1.00;;
4563;SDS011;2294;51.818;8.484;2023-04-24T00:47:58;0.80;;;0.73;;
4563;SDS011;2294;51.818;8.484;2023-04-24T00:50:28;1.30;;;1.10;;
4563;SDS011;2294;51.818;8.484;2023-04-24T00:52:56;1.50;;;1.00;;
4563;SDS011;2294;51.818;8.484;2023-04-24T00:55:23;3.67;;;0.90;;
4563;SDS011;2294;51.818;8.484;2023-04-24T00:57:51;1.73;;;0.80;;
4563;SDS011;2294;51.818;8.484;2023-04-24T01:00:18;0.80;;;0.80;;
4563;SDS011;2294;51.818;8.484;2023-04-24T01:02:45;0.90;;;0.90;;
4563;SDS011;2294;51.818;8.484;2023-04-24T01:05:13;1.63;;;0.80;;
4563;SDS011;2294;51.818;8.484;2023-04-24T01:07:44;1.07;;;0.97;;
4563;SDS011;2294;51.818;8.484;2023-04-24T01:10:14;1.10;;;1.00;;
4563;SDS011;2294;51.818;8.484;2023-04-24T01:12:42;1.07;;;0.97;;
4563;SDS011;2294;51.818;8.484;2023-04-24T01:15:09;0.77;;;0.77;;
4563;SDS011;2294;51.818;8.484;2023-04-24T01:17:36;1.60;;;1.07;;
4563;SDS011;2294;51.818;8.484;2023-04-24T01:20:04;1.90;;;1.03;;
4563;SDS011;2294;51.818;8.484;2023-04-24T01:22:33;1.20;;;1.10;;
4563;SDS011;2294;51.818;8.484;2023-04-24T01:25:00;0.97;;;0.97;;
4563;SDS011;2294;51.818;8.484;2023-04-24T01:27:28;1.63;;;0.97;;
4563;SDS011;2294;51.818;8.484;2023-04-24T01:29:55;1.27;;;1.10;;
4563;SDS011;2294;51.818;8.484;2023-04-24T01:32:22;0.90;;;0.90;;
4563;SDS011;2294;51.818;8.484;2023-04-24T01:34:50;0.80;;;0.80;;
4563;SDS011;2294;51.818;8.484;2023-04-24T01:37:17;1.63;;;1.10;;
4563;SDS011;2294;51.818;8.484;2023-04-24T01:39:45;0.87;;;0.87;;
4563;SDS011;2294;51.818;8.484;2023-04-24T01:42:12;0.97;;;0.87;;
4563;SDS011;2294;51.818;8.484;2023-04-24T01:44:40;3.47;;;1.50;;
4563;SDS011;2294;51.818;8.484;2023-04-24T01:47:07;1.23;;;0.90;;
4563;SDS011;2294;51.818;8.484;2023-04-24T01:49:35;1.20;;;1.00;;
4563;SDS011;2294;51.818;8.484;2023-04-24T01:52:03;1.20;;;0.87;;
4563;SDS011;2294;51.818;8.484;2023-04-24T01:54:30;1.00;;;0.87;;
4563;SDS011;2294;51.818;8.484;2023-04-24T01:56:58;2.07;;;1.00;;
4563;SDS011;2294;51.818;8.484;2023-04-24T01:59:27;0.80;;;0.80;;
4563;SDS011;2294;51.818;8.484;2023-04-24T02:01:54;1.20;;;1.10;;
4563;SDS011;2294;51.818;8.484;2023-04-24T02:04:21;1.73;;;1.10;;
4563;SDS011;2294;51.818;8.484;2023-04-24T02:06:48;1.13;;;1.07;;
4563;SDS011;2294;51.818;8.484;2023-04-24T02:09:15;1.10;;;1.03;;
4563;SDS011;2294;51.818;8.484;2023-04-24T02:11:42;1.17;;;1.07;;
4563;SDS011;2294;51.818;8.484;2023-04-24T02:14:10;1.27;;;1.03;;
4563;SDS011;2294;51.818;8.484;2023-04-24T02:16:37;1.43;;;1.33;;
4563;SDS011;2294;51.818;8.484;2023-04-24T02:19:04;1.30;;;1.17;;
4563;SDS011;2294;51.818;8.484;2023-04-24T02:21:31;0.90;;;0.90;;
4563;SDS011;2294;51.818;8.484;2023-04-24T02:23:59;1.20;;;1.10;;
4563;SDS011;2294;51.818;8.484;2023-04-24T02:26:26;1.00;;;0.90;;
4563;SDS011;2294;51.818;8.484;2023-04-24T02:28:53;1.47;;;1.00;;
4563;SDS011;2294;51.818;8.484;2023-04-24T02:31:21;1.60;;;0.90;;
4563;SDS011;2294;51.818;8.484;2023-04-24T02:33:48;0.90;;;0.90;;
4563;SDS011;2294;51.818;8.484;2023-04-24T02:36:15;1.00;;;0.90;;
4563;SDS011;2294;51.818;8.484;2023-04-24T02:38:41;1.50;;;0.90;;
4563;SDS011;2294;51.818;8.484;2023-04-24T02:41:08;1.20;;;1.10;;
4563;SDS011;2294;51.818;8.484;2023-04-24T02:43:35;1.23;;;1.13;;
4563;SDS011;2294;51.818;8.484;2023-04-24T02:46:02;3.13;;;1.27;;
4563;SDS011;2294;51.818;8.484;2023-04-24T02:50:59;1.60;;;1.40;;
4563;SDS011;2294;51.818;8.484;2023-04-24T02:53:25;1.70;;;1.07;;
4563;SDS011;2294;51.818;8.484;2023-04-24T02:55:52;1.30;;;1.20;;
4563;SDS011;2294;51.818;8.484;2023-04-24T02:58:19;1.13;;;1.03;;
4563;SDS011;2294;51.818;8.484;2023-04-24T03:00:46;1.07;;;1.00;;
4563;SDS011;2294;51.818;8.484;2023-04-24T03:03:13;2.47;;;0.90;;
4563;SDS011;2294;51.818;8.484;2023-04-24T03:05:41;1.63;;;1.40;;
4563;SDS011;2294;51.818;8.484;2023-04-24T03:08:08;1.10;;;1.00;;
4563;SDS011;2294;51.818;8.484;2023-04-24T03:10:36;1.00;;;0.90;;
4563;SDS011;2294;51.818;8.484;2023-04-24T03:13:03;1.50;;;1.03;;
4563;SDS011;2294;51.818;8.484;2023-04-24T03:15:30;1.20;;;1.10;;
4563;SDS011;2294;51.818;8.484;2023-04-24T03:17:56;2.20;;;1.10;;
4563;SDS011;2294;51.818;8.484;2023-04-24T03:20:23;3.20;;;1.10;;
4563;SDS011;2294;51.818;8.484;2023-04-24T03:22:52;1.30;;;1.20;;
4563;SDS011;2294;51.818;8.484;2023-04-24T03:25:19;1.13;;;1.03;;
4563;SDS011;2294;51.818;8.484;2023-04-24T03:27:46;2.40;;;1.43;;
4563;SDS011;2294;51.818;8.484;2023-04-24T03:30:13;1.17;;;1.07;;
4563;SDS011;2294;51.818;8.484;2023-04-24T03:32:39;1.70;;;1.60;;
4563;SDS011;2294;51.818;8.484;2023-04-24T03:35:07;1.20;;;1.10;;
4563;SDS011;2294;51.818;8.484;2023-04-24T03:37:34;2.80;;;1.27;;
4563;SDS011;2294;51.818;8.484;2023-04-24T03:40:02;1.37;;;1.27;;
4563;SDS011;2294;51.818;8.484;2023-04-24T03:42:31;2.17;;;1.97;;
4563;SDS011;2294;51.818;8.484;2023-04-24T03:44:59;1.53;;;1.40;;
4563;SDS011;2294;51.818;8.484;2023-04-24T03:47:26;1.83;;;1.20;;
4563;SDS011;2294;51.818;8.484;2023-04-24T03:49:53;1.57;;;1.47;;
4563;SDS011;2294;51.818;8.484;2023-04-24T03:52:20;1.50;;;1.40;;
4563;SDS011;2294;51.818;8.484;2023-04-24T03:54:47;2.07;;;1.87;;
4563;SDS011;2294;51.818;8.484;2023-04-24T03:57:16;1.80;;;1.63;;
4563;SDS011;2294;51.818;8.484;2023-04-24T03:59:43;2.20;;;1.90;;
4563;SDS011;2294;51.818;8.484;2023-04-24T04:02:09;2.30;;;2.10;;
4563;SDS011;2294;51.818;8.484;2023-04-24T04:04:36;2.77;;;2.30;;
4563;SDS011;2294;51.818;8.484;2023-04-24T04:07:03;6.20;;;2.10;;
4563;SDS011;2294;51.818;8.484;2023-04-24T04:09:30;3.63;;;2.80;;
4563;SDS011;2294;51.818;8.484;2023-04-24T04:11:57;2.10;;;1.90;;
4563;SDS011;2294;51.818;8.484;2023-04-24T04:14:26;7.53;;;3.07;;
4563;SDS011;2294;51.818;8.484;2023-04-24T04:16:53;2.00;;;1.80;;
4563;SDS011;2294;51.818;8.484;2023-04-24T04:19:20;2.70;;;2.20;;
4563;SDS011;2294;51.818;8.484;2023-04-24T04:21:47;2.50;;;1.93;;
4563;SDS011;2294;51.818;8.484;2023-04-24T04:24:17;3.30;;;1.90;;
4563;SDS011;2294;51.818;8.484;2023-04-24T04:26:45;4.67;;;2.50;;
4563;SDS011;2294;51.818;8.484;2023-04-24T04:29:12;8.03;;;2.27;;
4563;SDS011;2294;51.818;8.484;2023-04-24T04:31:41;3.27;;;2.60;;
4563;SDS011;2294;51.818;8.484;2023-04-24T04:34:08;4.10;;;3.10;;
4563;SDS011;2294;51.818;8.484;2023-04-24T04:36:36;4.57;;;3.27;;
4563;SDS011;2294;51.818;8.484;2023-04-24T04:39:05;4.93;;;3.33;;
4563;SDS011;2294;51.818;8.484;2023-04-24T04:41:32;3.43;;;2.97;;
4563;SDS011;2294;51.818;8.484;2023-04-24T04:44:00;4.73;;;3.50;;
4563;SDS011;2294;51.818;8.484;2023-04-24T04:46:30;5.40;;;3.83;;
4563;SDS011;2294;51.818;8.484;2023-04-24T04:49:00;6.00;;;4.83;;
4563;SDS011;2294;51.818;8.484;2023-04-24T04:51:27;8.30;;;5.83;;
4563;SDS011;2294;51.818;8.484;2023-04-24T04:53:55;12.83;;;7.60;;
4563;SDS011;2294;51.818;8.484;2023-04-24T04:56:22;9.07;;;6.90;;
4563;SDS011;2294;51.818;8.484;2023-04-24T04:58:48;13.20;;;7.47;;
4563;SDS011;2294;51.818;8.484;2023-04-24T05:01:15;10.70;;;7.50;;
4563;SDS011;2294;51.818;8.484;2023-04-24T05:03:42;11.50;;;7.70;;
4563;SDS011;2294;51.818;8.484;2023-04-24T05:06:11;8.20;;;5.30;;
4563;SDS011;2294;51.818;8.484;2023-04-24T05:08:38;9.23;;;6.93;;
4563;SDS011;2294;51.818;8.484;2023-04-24T05:11:07;11.63;;;7.60;;
4563;SDS011;2294;51.818;8.484;2023-04-24T05:13:34;10.80;;;7.33;;
4563;SDS011;2294;51.818;8.484;2023-04-24T05:16:01;11.37;;;8.03;;
4563;SDS011;2294;51.818;8.484;2023-04-24T05:18:28;14.20;;;6.13;;
4563;SDS011;2294;51.818;8.484;2023-04-24T05:20:55;12.33;;;7.77;;
4563;SDS011;2294;51.818;8.484;2023-04-24T05:23:23;11.17;;;7.40;;
4563;SDS011;2294;51.818;8.484;2023-04-24T05:25:50;13.53;;;8.53;;
4563;SDS011;2294;51.818;8.484;2023-04-24T05:28:17;10.20;;;7.87;;
4563;SDS011;2294;51.818;8.484;2023-04-24T05:30:44;11.37;;;7.10;;
4563;SDS011;2294;51.818;8.484;2023-04-24T05:33:11;13.40;;;8.20;;
4563;SDS011;2294;51.818;8.484;2023-04-24T05:35:39;13.73;;;8.43;;
4563;SDS011;2294;51.818;8.484;2023-04-24T05:38:10;13.20;;;9.03;;
4563;SDS011;2294;51.818;8.484;2023-04-24T05:40:38;17.23;;;9.17;;
4563;SDS011;2294;51.818;8.484;2023-04-24T05:43:05;12.90;;;8.40;;
4563;SDS011;2294;51.818;8.484;2023-04-24T05:45:32;10.80;;;8.40;;
4563;SDS011;2294;51.818;8.484;2023-04-24T05:48:01;15.73;;;9.57;;
4563;SDS011;2294;51.818;8.484;2023-04-24T05:50:28;13.33;;;9.13;;
4563;SDS011;2294;51.818;8.484;2023-04-24T05:52:54;13.40;;;8.67;;
4563;SDS011;2294;51.818;8.484;2023-04-24T05:55:23;14.57;;;8.50;;
4563;SDS011;2294;51.818;8.484;2023-04-24T05:57:51;13.40;;;8.60;;
4563;SDS011;2294;51.818;8.484;2023-04-24T06:00:18;12.10;;;7.47;;
4563;SDS011;2294;51.818;8.484;2023-04-24T06:02:46;14.90;;;7.97;;
4563;SDS011;2294;51.818;8.484;2023-04-24T06:05:13;10.77;;;7.83;;
4563;SDS011;2294;51.818;8.484;2023-04-24T06:07:40;13.10;;;7.73;;
4563;SDS011;2294;51.818;8.484;2023-04-24T06:10:07;23.03;;;9.40;;
4563;SDS011;2294;51.818;8.484;2023-04-24T06:12:34;11.20;;;8.23;;
4563;SDS011;2294;51.818;8.484;2023-04-24T06:15:03;12.77;;;8.37;;
4563;SDS011;2294;51.818;8.484;2023-04-24T06:17:31;11.00;;;8.30;;
4563;SDS011;2294;51.818;8.484;2023-04-24T06:19:58;10.27;;;7.67;;
4563;SDS011;2294;51.818;8.484;2023-04-24T06:22:24;12.17;;;8.00;;
4563;SDS011;2294;51.818;8.484;2023-04-24T06:24:51;13.90;;;8.10;;
4563;SDS011;2294;51.818;8.484;2023-04-24T06:27:18;10.20;;;5.93;;
4563;SDS011;2294;51.818;8.484;2023-04-24T06:29:45;11.50;;;6.40;;
4563;SDS011;2294;51.818;8.484;2023-04-24T06:32:19;23.27;;;7.97;;
4563;SDS011;2294;51.818;8.484;2023-04-24T06:34:45;14.60;;;8.70;;
4563;SDS011;2294;51.818;8.484;2023-04-24T06:37:12;9.13;;;6.87;;
4563;SDS011;2294;51.818;8.484;2023-04-24T06:39:41;8.33;;;6.87;;
4563;SDS011;2294;51.818;8.484;2023-04-24T06:42:08;10.93;;;7.90;;
4563;SDS011;2294;51.818;8.484;2023-04-24T06:44:34;11.57;;;8.13;;
4563;SDS011;2294;51.818;8.484;2023-04-24T06:47:06;9.80;;;6.70;;
4563;SDS011;2294;51.818;8.484;2023-04-24T06:49:34;13.13;;;6.80;;
4563;SDS011;2294;51.818;8.484;2023-04-24T06:52:01;10.27;;;6.63;;
4563;SDS011;2294;51.818;8.484;2023-04-24T06:54:28;9.30;;;6.33;;
4563;SDS011;2294;51.818;8.484;2023-04-24T06:56:55;8.70;;;6.60;;
4563;SDS011;2294;51.818;8.484;2023-04-24T06:59:23;8.90;;;6.80;;
4563;SDS011;2294;51.818;8.484;2023-04-24T07:01:50;10.07;;;6.67;;
4563;SDS011;2294;51.818;8.484;2023-04-24T07:04:17;15.13;;;5.70;;
4563;SDS011;2294;51.818;8.484;2023-04-24T07:06:45;16.50;;;6.60;;
4563;SDS011;2294;51.818;8.484;2023-04-24T07:09:14;10.90;;;7.13;;
4563;SDS011;2294;51.818;8.484;2023-04-24T07:11:43;19.13;;;7.53;;
4563;SDS011;2294;51.818;8.484;2023-04-24T07:14:10;9.10;;;6.77;;
4563;SDS011;2294;51.818;8.484;2023-04-24T07:16:37;8.80;;;6.20;;
4563;SDS011;2294;51.818;8.484;2023-04-24T07:19:04;8.30;;;6.13;;
4563;SDS011;2294;51.818;8.484;2023-04-24T07:21:31;8.17;;;5.90;;
4563;SDS011;2294;51.818;8.484;2023-04-24T07:24:00;6.90;;;5.23;;
4563;SDS011;2294;51.818;8.484;2023-04-24T07:26:27;7.03;;;5.43;;
4563;SDS011;2294;51.818;8.484;2023-04-24T07:28:57;6.97;;;5.60;;
4563;SDS011;2294;51.818;8.484;2023-04-24T07:31:24;6.53;;;4.90;;
4563;SDS011;2294;51.818;8.484;2023-04-24T07:33:51;7.00;;;5.60;;
4563;SDS011;2294;51.818;8.484;2023-04-24T07:36:18;7.10;;;5.27;;
4563;SDS011;2294;51.818;8.484;2023-04-24T07:38:44;8.10;;;5.50;;
4563;SDS011;2294;51.818;8.484;2023-04-24T07:41:13;8.13;;;4.80;;
4563;SDS011;2294;51.818;8.484;2023-04-24T07:43:40;7.13;;;5.03;;
4563;SDS011;2294;51.818;8.484;2023-04-24T07:46:08;5.57;;;4.67;;
4563;SDS011;2294;51.818;8.484;2023-04-24T07:48:35;10.00;;;5.30;;
4563;SDS011;2294;51.818;8.484;2023-04-24T07:51:02;5.63;;;5.00;;
4563;SDS011;2294;51.818;8.484;2023-04-24T07:53:29;6.17;;;4.40;;
4563;SDS011;2294;51.818;8.484;2023-04-24T07:55:56;2.80;;;2.57;;
4563;SDS011;2294;51.818;8.484;2023-04-24T07:58:25;3.93;;;3.03;;
4563;SDS011;2294;51.818;8.484;2023-04-24T08:00:51;6.07;;;3.57;;
4563;SDS011;2294;51.818;8.484;2023-04-24T08:03:18;7.77;;;4.27;;
4563;SDS011;2294;51.818;8.484;2023-04-24T08:05:45;5.80;;;2.90;;
4563;SDS011;2294;51.818;8.484;2023-04-24T08:08:12;10.07;;;2.90;;
4563;SDS011;2294;51.818;8.484;2023-04-24T08:10:39;3.33;;;3.00;;
4563;SDS011;2294;51.818;8.484;2023-04-24T08:13:06;3.83;;;3.00;;
4563;SDS011;2294;51.818;8.484;2023-04-24T08:15:35;2.57;;;2.37;;
4563;SDS011;2294;51.818;8.484;2023-04-24T08:18:02;2.40;;;1.90;;
4563;SDS011;2294;51.818;8.484;2023-04-24T08:20:29;5.33;;;2.27;;
4563;SDS011;2294;51.818;8.484;2023-04-24T08:22:56;2.83;;;2.10;;
4563;SDS011;2294;51.818;8.484;2023-04-24T08:25:23;2.93;;;2.60;;
4563;SDS011;2294;51.818;8.484;2023-04-24T08:27:50;2.60;;;2.10;;
4563;SDS011;2294;51.818;8.484;2023-04-24T08:30:17;2.97;;;2.30;;
4563;SDS011;2294;51.818;8.484;2023-04-24T08:32:45;2.60;;;2.40;;
4563;SDS011;2294;51.818;8.484;2023-04-24T08:35:12;2.60;;;2.40;;
4563;SDS011;2294;51.818;8.484;2023-04-24T08:37:39;3.43;;;2.53;;
4563;SDS011;2294;51.818;8.484;2023-04-24T08:40:10;4.33;;;2.83;;
4563;SDS011;2294;51.818;8.484;2023-04-24T08:42:41;4.87;;;3.13;;
4563;SDS011;2294;51.818;8.484;2023-04-24T08:45:09;2.83;;;2.50;;
4563;SDS011;2294;51.818;8.484;2023-04-24T08:47:37;2.60;;;2.40;;
4563;SDS011;2294;51.818;8.484;2023-04-24T08:50:07;2.20;;;2.00;;
4563;SDS011;2294;51.818;8.484;2023-04-24T08:52:35;3.67;;;2.60;;
4563;SDS011;2294;51.818;8.484;2023-04-24T08:55:02;2.63;;;2.30;;
4563;SDS011;2294;51.818;8.484;2023-04-24T08:57:29;3.93;;;2.47;;
4563;SDS011;2294;51.818;8.484;2023-04-24T08:59:58;4.30;;;3.07;;
4563;SDS011;2294;51.818;8.484;2023-04-24T09:02:25;2.73;;;2.53;;
4563;SDS011;2294;51.818;8.484;2023-04-24T09:04:53;3.50;;;2.73;;
4563;SDS011;2294;51.818;8.484;2023-04-24T09:07:23;3.10;;;2.03;;
4563;SDS011;2294;51.818;8.484;2023-04-24T09:09:51;2.90;;;1.60;;
4563;SDS011;2294;51.818;8.484;2023-04-24T09:12:18;5.43;;;2.40;;
4563;SDS011;2294;51.818;8.484;2023-04-24T09:14:45;2.40;;;1.90;;
4563;SDS011;2294;51.818;8.484;2023-04-24T09:17:14;1.90;;;1.80;;
4563;SDS011;2294;51.818;8.484;2023-04-24T09:19:41;3.30;;;1.93;;
4563;SDS011;2294;51.818;8.484;2023-04-24T09:22:08;3.27;;;1.87;;
4563;SDS011;2294;51.818;8.484;2023-04-24T09:24:37;2.40;;;1.70;;
4563;SDS011;2294;51.818;8.484;2023-04-24T09:27:05;1.97;;;1.77;;
4563;SDS011;2294;51.818;8.484;2023-04-24T09:29:32;1.80;;;1.70;;
4563;SDS011;2294;51.818;8.484;2023-04-24T09:31:59;1.20;;;1.10;;
4563;SDS011;2294;51.818;8.484;2023-04-24T09:34:44;1.40;;;1.30;;
4563;SDS011;2294;51.818;8.484;2023-04-24T09:37:15;1.60;;;1.50;;
4563;SDS011;2294;51.818;8.484;2023-04-24T09:40:08;1.30;;;1.20;;
4563;SDS011;2294;51.818;8.484;2023-04-24T09:42:36;1.23;;;1.13;;
4563;SDS011;2294;51.818;8.484;2023-04-24T09:45:04;1.47;;;1.20;;
4563;SDS011;2294;51.818;8.484;2023-04-24T09:47:35;1.20;;;1.10;;
4563;SDS011;2294;51.818;8.484;2023-04-24T09:50:08;1.23;;;1.10;;
4563;SDS011;2294;51.818;8.484;2023-04-24T09:52:39;1.30;;;1.20;;
4563;SDS011;2294;51.818;8.484;2023-04-24T09:55:14;1.10;;;1.00;;
4563;SDS011;2294;51.818;8.484;2023-04-24T09:57:47;1.20;;;1.10;;
4563;SDS011;2294;51.818;8.484;2023-04-24T10:00:18;0.87;;;0.87;;
4563;SDS011;2294;51.818;8.484;2023-04-24T10:02:51;1.80;;;0.90;;
4563;SDS011;2294;51.818;8.484;2023-04-24T10:05:25;2.30;;;0.80;;
4563;SDS011;2294;51.818;8.484;2023-04-24T10:07:57;0.87;;;0.87;;
4563;SDS011;2294;51.818;8.484;2023-04-24T10:10:28;1.20;;;1.10;;
4563;SDS011;2294;51.818;8.484;2023-04-24T10:12:55;1.67;;;0.90;;
4563;SDS011;2294;51.818;8.484;2023-04-24T10:15:22;1.27;;;1.00;;
4563;SDS011;2294;51.818;8.484;2023-04-24T10:17:50;0.70;;;0.70;;
4563;SDS011;2294;51.818;8.484;2023-04-24T10:20:22;1.00;;;0.90;;
4563;SDS011;2294;51.818;8.484;2023-04-24T10:22:51;1.17;;;0.90;;
4563;SDS011;2294;51.818;8.484;2023-04-24T10:25:19;0.83;;;0.80;;
4563;SDS011;2294;51.818;8.484;2023-04-24T10:27:49;0.83;;;0.80;;
4563;SDS011;2294;51.818;8.484;2023-04-24T10:30:16;0.80;;;0.80;;
4563;SDS011;2294;51.818;8.484;2023-04-24T10:32:44;0.73;;;0.73;;
4563;SDS011;2294;51.818;8.484;2023-04-24T10:35:12;1.10;;;1.00;;
4563;SDS011;2294;51.818;8.484;2023-04-24T10:37:42;1.00;;;0.90;;
4563;SDS011;2294;51.818;8.484;2023-04-24T10:40:11;0.90;;;0.90;;
4563;SDS011;2294;51.818;8.484;2023-04-24T10:42:43;0.97;;;0.87;;
4563;SDS011;2294;51.818;8.484;2023-04-24T10:45:18;0.70;;;0.70;;
4563;SDS011;2294;51.818;8.484;2023-04-24T10:47:52;0.83;;;0.83;;
4563;SDS011;2294;51.818;8.484;2023-04-24T10:50:22;1.23;;;1.00;;
4563;SDS011;2294;51.818;8.484;2023-04-24T10:52:49;4.20;;;1.00;;
4563;SDS011;2294;51.818;8.484;2023-04-24T10:55:29;0.97;;;0.87;;
4563;SDS011;2294;51.818;8.484;2023-04-24T10:58:08;0.80;;;0.80;;
4563;SDS011;2294;51.818;8.484;2023-04-24T11:00:36;3.63;;;1.00;;
4563;SDS011;2294;51.818;8.484;2023-04-24T11:03:04;0.80;;;0.80;;
4563;SDS011;2294;51.818;8.484;2023-04-24T11:05:55;0.70;;;0.70;;
4563;SDS011;2294;51.818;8.484;2023-04-24T11:08:24;1.00;;;1.00;;
4563;SDS011;2294;51.818;8.484;2023-04-24T11:10:57;0.90;;;0.90;;
4563;SDS011;2294;51.818;8.484;2023-04-24T11:16:32;0.90;;;0.90;;
4563;SDS011;2294;51.818;8.484;2023-04-24T11:19:00;1.33;;;1.23;;
4563;SDS011;2294;51.818;8.484;2023-04-24T11:21:32;6.93;;;1.67;;
4563;SDS011;2294;51.818;8.484;2023-04-24T11:24:21;1.30;;;1.17;;
4563;SDS011;2294;51.818;8.484;2023-04-24T11:26:52;4.67;;;1.33;;
4563;SDS011;2294;51.818;8.484;2023-04-24T11:29:21;1.50;;;1.40;;
4563;SDS011;2294;51.818;8.484;2023-04-24T11:31:49;1.60;;;1.13;;
4563;SDS011;2294;51.818;8.484;2023-04-24T11:34:17;1.60;;;1.50;;
4563;SDS011;2294;51.818;8.484;2023-04-24T11:36:44;2.20;;;2.00;;
4563;SDS011;2294;51.818;8.484;2023-04-24T11:39:12;1.83;;;1.73;;
4563;SDS011;2294;51.818;8.484;2023-04-24T11:41:40;1.97;;;1.67;;
4563;SDS011;2294;51.818;8.484;2023-04-24T11:44:08;3.13;;;1.70;;
4563;SDS011;2294;51.818;8.484;2023-04-24T11:46:37;1.90;;;1.80;;
4563;SDS011;2294;51.818;8.484;2023-04-24T11:49:05;2.87;;;1.60;;
4563;SDS011;2294;51.818;8.484;2023-04-24T11:51:32;2.07;;;1.90;;
4563;SDS011;2294;51.818;8.484;2023-04-24T11:54:00;1.97;;;1.87;;
4563;SDS011;2294;51.818;8.484;2023-04-24T11:56:27;2.13;;;1.90;;
4563;SDS011;2294;51.818;8.484;2023-04-24T11:58:54;4.10;;;3.00;;
4563;SDS011;2294;51.818;8.484;2023-04-24T12:01:20;3.90;;;1.90;;
4563;SDS011;2294;51.818;8.484;2023-04-24T12:03:50;4.30;;;2.10;;
4563;SDS011;2294;51.818;8.484;2023-04-24T12:06:17;3.27;;;1.67;;
4563;SDS011;2294;51.818;8.484;2023-04-24T12:08:47;2.10;;;1.80;;
4563;SDS011;2294;51.818;8.484;2023-04-24T12:11:15;1.93;;;1.50;;
4563;SDS011;2294;51.818;8.484;2023-04-24T12:13:44;1.40;;;1.23;;
4563;SDS011;2294;51.818;8.484;2023-04-24T12:16:11;0.80;;;0.73;;
4563;SDS011;2294;51.818;8.484;2023-04-24T12:18:42;4.70;;;1.53;;
4563;SDS011;2294;51.818;8.484;2023-04-24T12:21:18;1.70;;;1.60;;
4563;SDS011;2294;51.818;8.484;2023-04-24T12:23:46;3.63;;;1.40;;
4563;SDS011;2294;51.818;8.484;2023-04-24T12:26:15;1.30;;;1.20;;
4563;SDS011;2294;51.818;8.484;2023-04-24T12:28:46;1.70;;;1.60;;
4563;SDS011;2294;51.818;8.484;2023-04-24T12:31:14;3.20;;;1.53;;
4563;SDS011;2294;51.818;8.484;2023-04-24T12:33:41;1.97;;;1.80;;
4563;SDS011;2294;51.818;8.484;2023-04-24T12:36:09;2.40;;;2.10;;
4563;SDS011;2294;51.818;8.484;2023-04-24T12:38:39;2.57;;;2.13;;
4563;SDS011;2294;51.818;8.484;2023-04-24T12:41:11;4.77;;;2.47;;
4563;SDS011;2294;51.818;8.484;2023-04-24T12:43:50;2.93;;;1.83;;
4563;SDS011;2294;51.818;8.484;2023-04-24T12:46:17;3.37;;;1.80;;
4563;SDS011;2294;51.818;8.484;2023-04-24T12:48:44;3.77;;;2.67;;
4563;SDS011;2294;51.818;8.484;2023-04-24T12:51:11;3.67;;;3.37;;
4563;SDS011;2294;51.818;8.484;2023-04-24T12:53:39;5.80;;;2.97;;
4563;SDS011;2294;51.818;8.484;2023-04-24T12:56:06;11.27;;;4.30;;
4563;SDS011;2294;51.818;8.484;2023-04-24T12:58:33;8.37;;;3.27;;
4563;SDS011;2294;51.818;8.484;2023-04-24T13:01:00;11.43;;;4.27;;
4563;SDS011;2294;51.818;8.484;2023-04-24T13:03:27;5.50;;;3.27;;
4563;SDS011;2294;51.818;8.484;2023-04-24T13:05:54;8.27;;;3.20;;
4563;SDS011;2294;51.818;8.484;2023-04-24T13:08:21;5.23;;;2.70;;
4563;SDS011;2294;51.818;8.484;2023-04-24T13:10:49;7.77;;;3.20;;
4563;SDS011;2294;51.818;8.484;2023-04-24T13:13:17;12.97;;;3.23;;
4563;SDS011;2294;51.818;8.484;2023-04-24T13:15:43;4.20;;;3.07;;
4563;SDS011;2294;51.818;8.484;2023-04-24T13:18:10;6.60;;;3.23;;
4563;SDS011;2294;51.818;8.484;2023-04-24T13:20:37;11.00;;;3.70;;
4563;SDS011;2294;51.818;8.484;2023-04-24T13:23:06;13.63;;;3.40;;
4563;SDS011;2294;51.818;8.484;2023-04-24T13:25:34;11.10;;;4.03;;
4563;SDS011;2294;51.818;8.484;2023-04-24T13:28:03;6.80;;;4.03;;
4563;SDS011;2294;51.818;8.484;2023-04-24T13:30:30;13.37;;;4.27;;
4563;SDS011;2294;51.818;8.484;2023-04-24T13:32:57;5.73;;;3.47;;
4563;SDS011;2294;51.818;8.484;2023-04-24T13:35:24;6.40;;;3.40;;
4563;SDS011;2294;51.818;8.484;2023-04-24T13:37:51;7.80;;;3.70;;
4563;SDS011;2294;51.818;8.484;2023-04-24T13:40:18;8.60;;;3.13;;
4563;SDS011;2294;51.818;8.484;2023-04-24T13:42:45;15.03;;;4.67;;
4563;SDS011;2294;51.818;8.484;2023-04-24T13:45:13;9.80;;;3.80;;
4563;SDS011;2294;51.818;8.484;2023-04-24T13:47:40;8.90;;;4.20;;
4563;SDS011;2294;51.818;8.484;2023-04-24T13:50:07;9.00;;;4.50;;
4563;SDS011;2294;51.818;8.484;2023-04-24T13:52:35;11.83;;;6.47;;
4563;SDS011;2294;51.818;8.484;2023-04-24T13:55:02;13.43;;;4.70;;
4563;SDS011;2294;51.818;8.484;2023-04-24T13:57:29;5.87;;;4.30;;
4563;SDS011;2294;51.818;8.484;2023-04-24T13:59:57;13.13;;;5.20;;
4563;SDS011;2294;51.818;8.484;2023-04-24T14:02:27;9.70;;;6.27;;
4563;SDS011;2294;51.818;8.484;2023-04-24T14:04:54;9.47;;;4.57;;
4563;SDS011;2294;51.818;8.484;2023-04-24T14:07:21;9.43;;;5.70;;
4563;SDS011;2294;51.818;8.484;2023-04-24T14:09:48;7.40;;;4.83;;
4563;SDS011;2294;51.818;8.484;2023-04-24T14:12:16;7.57;;;4.30;;
4563;SDS011;2294;51.818;8.484;2023-04-24T14:14:45;9.53;;;3.67;;
4563;SDS011;2294;51.818;8.484;2023-04-24T14:17:13;6.53;;;4.70;;
4563;SDS011;2294;51.818;8.484;2023-04-24T14:19:41;14.77;;;7.10;;
4563;SDS011;2294;51.818;8.484;2023-04-24T14:22:08;8.90;;;5.10;;
4563;SDS011;2294;51.818;8.484;2023-04-24T14:24:35;12.80;;;8.00;;
4563;SDS011;2294;51.818;8.484;2023-04-24T14:27:02;12.33;;;4.10;;
4563;SDS011;2294;51.818;8.484;2023-04-24T14:29:29;9.13;;;4.77;;
4563;SDS011;2294;51.818;8.484;2023-04-24T14:31:56;8.43;;;4.27;;
4563;SDS011;2294;51.818;8.484;2023-04-24T14:34:23;13.07;;;4.30;;
4563;SDS011;2294;51.818;8.484;2023-04-24T14:36:52;11.57;;;5.00;;
4563;SDS011;2294;51.818;8.484;2023-04-24T14:39:19;7.67;;;3.07;;
4563;SDS011;2294;51.818;8.484;2023-04-24T14:41:46;7.60;;;4.00;;
4563;SDS011;2294;51.818;8.484;2023-04-24T14:44:13;9.70;;;3.40;;
4563;SDS011;2294;51.818;8.484;2023-04-24T14:46:40;4.00;;;2.53;;
4563;SDS011;2294;51.818;8.484;2023-04-24T14:49:08;4.73;;;3.07;;
4563;SDS011;2294;51.818;8.484;2023-04-24T14:51:36;8.40;;;2.70;;
4563;SDS011;2294;51.818;8.484;2023-04-24T14:54:05;5.37;;;2.97;;
4563;SDS011;2294;51.818;8.484;2023-04-24T14:56:31;6.80;;;2.63;;
4563;SDS011;2294;51.818;8.484;2023-04-24T14:58:58;3.17;;;2.00;;
4563;SDS011;2294;51.818;8.484;2023-04-24T15:01:25;3.70;;;2.50;;
4563;SDS011;2294;51.818;8.484;2023-04-24T15:03:52;3.90;;;2.23;;
4563;SDS011;2294;51.818;8.484;2023-04-24T15:06:19;2.40;;;1.87;;
4563;SDS011;2294;51.818;8.484;2023-04-24T15:08:46;2.83;;;2.53;;
4563;SDS011;2294;51.818;8.484;2023-04-24T15:11:14;5.43;;;1.70;;
4563;SDS011;2294;51.818;8.484;2023-04-24T15:13:41;4.83;;;2.47;;
4563;SDS011;2294;51.818;8.484;2023-04-24T15:16:10;5.00;;;2.17;;
4563;SDS011;2294;51.818;8.484;2023-04-24T15:18:36;2.40;;;2.20;;
4563;SDS011;2294;51.818;8.484;2023-04-24T15:21:03;6.00;;;3.23;;
4563;SDS011;2294;51.818;8.484;2023-04-24T15:23:30;8.93;;;3.27;;